PGT4AQ LTBJ-LTFJ
Flight info
| Callsign | PGT4AQ |
|---|---|
| Flight time | 0h 37m |
| Altitude | 25000 |
| Route | BERGO UG80 DUGLA UY371 VUTZO |
| Aircraft | B738/M-SDE2E3FGHIRWXY/LB1 |
Departure
| Time | 2026-04-29 20:25 |
|---|---|
| Airport | Adnan Menderes International Airport (LTBJ) |
Arrival
| Time | 2026-04-29 21:02 |
|---|---|
| Airport | Istanbul Sabiha Gökçen International Airport (LTFJ) |
| Time | Latitude | Longitude | Altitude | Speed | Heading |
|---|---|---|---|---|---|
| 2026-04-29 19:52 | 38.29292 | 27.15056 | 406 ft | 0 kts | 256° |
| 2026-04-29 19:56 | 38.29292 | 27.15062 | 406 ft | 2 kts | 255° |
| 2026-04-29 19:56 | 38.29298 | 27.15079 | 406 ft | 2 kts | 238° |
| 2026-04-29 19:56 | 38.29307 | 27.15095 | 405 ft | 2 kts | 227° |
| 2026-04-29 19:57 | 38.29318 | 27.15108 | 405 ft | 2 kts | 214° |
| 2026-04-29 19:57 | 38.29327 | 27.15114 | 404 ft | 2 kts | 206° |
| 2026-04-29 19:57 | 38.29345 | 27.15123 | 404 ft | 2 kts | 189° |
| 2026-04-29 19:57 | 38.29360 | 27.15124 | 404 ft | 2 kts | 177° |
| 2026-04-29 19:58 | 38.29371 | 27.15123 | 403 ft | 0 kts | 168° |
| 2026-04-29 19:58 | 38.29377 | 27.15121 | 403 ft | 0 kts | 166° |
| 2026-04-29 20:00 | 38.29349 | 27.15125 | 404 ft | 5 kts | 185° |
| 2026-04-29 20:00 | 38.29315 | 27.15107 | 405 ft | 5 kts | 217° |
| 2026-04-29 20:01 | 38.29294 | 27.15072 | 406 ft | 4 kts | 248° |
| 2026-04-29 20:01 | 38.29290 | 27.15054 | 406 ft | 0 kts | 258° |
| 2026-04-29 20:10 | 38.29291 | 27.15055 | 405 ft | 0 kts | 259° |
| 2026-04-29 20:11 | 38.29295 | 27.15070 | 405 ft | 2 kts | 244° |
| 2026-04-29 20:11 | 38.29302 | 27.15087 | 405 ft | 2 kts | 233° |
| 2026-04-29 20:11 | 38.29312 | 27.15101 | 404 ft | 2 kts | 221° |
| 2026-04-29 20:11 | 38.29324 | 27.15112 | 404 ft | 2 kts | 209° |
| 2026-04-29 20:12 | 38.29338 | 27.15120 | 403 ft | 2 kts | 196° |
| 2026-04-29 20:12 | 38.29352 | 27.15123 | 403 ft | 2 kts | 184° |
| 2026-04-29 20:12 | 38.29367 | 27.15123 | 403 ft | 2 kts | 171° |
| 2026-04-29 20:12 | 38.29375 | 27.15122 | 403 ft | 1 kts | 164° |
| 2026-04-29 20:13 | 38.29378 | 27.15120 | 403 ft | 0 kts | 166° |
| 2026-04-29 20:20 | 38.29370 | 27.15123 | 403 ft | 3 kts | 166° |
| 2026-04-29 20:20 | 38.29343 | 27.15147 | 403 ft | 8 kts | 103° |
| 2026-04-29 20:20 | 38.29355 | 27.15240 | 404 ft | 10 kts | 76° |
| 2026-04-29 20:20 | 38.29369 | 27.15316 | 405 ft | 7 kts | 76° |
| 2026-04-29 20:21 | 38.29385 | 27.15395 | 406 ft | 15 kts | 76° |
| 2026-04-29 20:21 | 38.29411 | 27.15524 | 408 ft | 13 kts | 75° |
| 2026-04-29 20:21 | 38.29420 | 27.15627 | 410 ft | 11 kts | 122° |
| 2026-04-29 20:21 | 38.29308 | 27.15674 | 409 ft | 25 kts | 167° |
| 2026-04-29 20:22 | 38.29085 | 27.15744 | 407 ft | 36 kts | 165° |
| 2026-04-29 20:22 | 38.28847 | 27.15817 | 406 ft | 35 kts | 167° |
| 2026-04-29 20:22 | 38.28609 | 27.15888 | 402 ft | 35 kts | 165° |
| 2026-04-29 20:22 | 38.28372 | 27.15958 | 399 ft | 34 kts | 168° |
| 2026-04-29 20:23 | 38.28133 | 27.16032 | 389 ft | 36 kts | 171° |
| 2026-04-29 20:23 | 38.27891 | 27.16102 | 384 ft | 28 kts | 172° |
| 2026-04-29 20:23 | 38.27828 | 27.16094 | 381 ft | 8 kts | 242° |
| 2026-04-29 20:23 | 38.27813 | 27.16033 | 380 ft | 7 kts | 256° |
| 2026-04-29 20:24 | 38.27801 | 27.15969 | 379 ft | 7 kts | 257° |
| 2026-04-29 20:24 | 38.27804 | 27.15916 | 379 ft | 5 kts | 313° |
| 2026-04-29 20:24 | 38.27860 | 27.15894 | 381 ft | 17 kts | 348° |
| 2026-04-29 20:24 | 38.28213 | 27.15791 | 391 ft | 85 kts | 347° |
| 2026-04-29 20:25 | 38.28982 | 27.15558 | 406 ft | 141 kts | 347° |
| 2026-04-29 20:25 | 38.30063 | 27.15225 | 750 ft | 162 kts | 347° |
| 2026-04-29 20:25 | 38.31141 | 27.14913 | 1395 ft | 167 kts | 349° |
| 2026-04-29 20:25 | 38.32320 | 27.14610 | 1928 ft | 180 kts | 350° |
| 2026-04-29 20:26 | 38.33567 | 27.14289 | 2368 ft | 191 kts | 349° |
| 2026-04-29 20:26 | 38.34936 | 27.13912 | 2730 ft | 210 kts | 348° |
| 2026-04-29 20:26 | 38.36436 | 27.13487 | 3156 ft | 228 kts | 348° |
| 2026-04-29 20:26 | 38.38017 | 27.13037 | 3620 ft | 243 kts | 348° |
| 2026-04-29 20:27 | 38.39742 | 27.12544 | 4126 ft | 257 kts | 348° |
| 2026-04-29 20:27 | 38.40896 | 27.12201 | 4566 ft | 261 kts | 348° |
| 2026-04-29 20:27 | 38.43254 | 27.11484 | 5536 ft | 265 kts | 347° |
| 2026-04-29 20:27 | 38.45053 | 27.10935 | 6257 ft | 268 kts | 347° |
| 2026-04-29 20:28 | 38.46877 | 27.10382 | 7010 ft | 271 kts | 347° |
| 2026-04-29 20:28 | 38.48708 | 27.09827 | 7765 ft | 273 kts | 347° |
| 2026-04-29 20:28 | 38.50545 | 27.09271 | 8492 ft | 276 kts | 347° |
| 2026-04-29 20:28 | 38.52410 | 27.08706 | 9261 ft | 279 kts | 347° |
| 2026-04-29 20:29 | 38.54317 | 27.08129 | 10012 ft | 282 kts | 347° |
| 2026-04-29 20:29 | 38.56256 | 27.07541 | 10579 ft | 293 kts | 346° |
| 2026-04-29 20:29 | 38.58270 | 27.06930 | 10991 ft | 309 kts | 346° |
| 2026-04-29 20:29 | 38.60416 | 27.06326 | 11386 ft | 325 kts | 350° |
| 2026-04-29 20:30 | 38.62750 | 27.06168 | 11785 ft | 342 kts | 2° |
| 2026-04-29 20:30 | 38.65165 | 27.06508 | 12158 ft | 358 kts | 7° |
| 2026-04-29 20:30 | 38.67652 | 27.07044 | 12761 ft | 366 kts | 9° |
| 2026-04-29 20:30 | 38.70163 | 27.07615 | 13497 ft | 370 kts | 8° |
| 2026-04-29 20:31 | 38.72711 | 27.08166 | 14241 ft | 374 kts | 8° |
| 2026-04-29 20:31 | 38.75279 | 27.08688 | 14992 ft | 378 kts | 7° |
| 2026-04-29 20:31 | 38.77867 | 27.09189 | 15739 ft | 381 kts | 7° |
| 2026-04-29 20:31 | 38.80503 | 27.09685 | 16459 ft | 385 kts | 6° |
| 2026-04-29 20:32 | 38.83150 | 27.10175 | 17174 ft | 389 kts | 6° |
| 2026-04-29 20:32 | 38.85850 | 27.10672 | 17868 ft | 393 kts | 6° |
| 2026-04-29 20:32 | 38.88553 | 27.11170 | 18558 ft | 396 kts | 6° |
| 2026-04-29 20:32 | 38.91281 | 27.11674 | 19204 ft | 400 kts | 6° |
| 2026-04-29 20:33 | 38.94055 | 27.12187 | 19839 ft | 404 kts | 6° |
| 2026-04-29 20:33 | 38.96833 | 27.12701 | 20448 ft | 408 kts | 6° |
| 2026-04-29 20:33 | 38.99642 | 27.13222 | 21042 ft | 412 kts | 5° |
| 2026-04-29 20:33 | 39.02522 | 27.13753 | 21600 ft | 417 kts | 5° |
| 2026-04-29 20:34 | 39.05380 | 27.14276 | 22182 ft | 420 kts | 5° |
| 2026-04-29 20:34 | 39.08266 | 27.14801 | 22740 ft | 424 kts | 5° |
| 2026-04-29 20:34 | 39.11214 | 27.15337 | 23330 ft | 426 kts | 5° |
| 2026-04-29 20:34 | 39.14140 | 27.15870 | 23904 ft | 428 kts | 5° |
| 2026-04-29 20:35 | 39.17093 | 27.16408 | 24400 ft | 432 kts | 5° |
| 2026-04-29 20:35 | 39.20076 | 27.16952 | 24922 ft | 435 kts | 5° |
| 2026-04-29 20:35 | 39.23112 | 27.17507 | 25056 ft | 437 kts | 5° |
| 2026-04-29 20:35 | 39.26116 | 27.18058 | 25064 ft | 435 kts | 5° |
| 2026-04-29 20:36 | 39.29103 | 27.18607 | 25065 ft | 434 kts | 5° |
| 2026-04-29 20:36 | 39.32075 | 27.19154 | 25071 ft | 434 kts | 5° |
| 2026-04-29 20:36 | 39.35063 | 27.19704 | 25070 ft | 435 kts | 5° |
| 2026-04-29 20:36 | 39.38046 | 27.20253 | 25072 ft | 435 kts | 5° |
| 2026-04-29 20:37 | 39.41059 | 27.20809 | 25077 ft | 434 kts | 5° |
| 2026-04-29 20:37 | 39.44059 | 27.21362 | 25082 ft | 434 kts | 5° |
| 2026-04-29 20:37 | 39.47030 | 27.21919 | 25083 ft | 434 kts | 5° |
| 2026-04-29 20:37 | 39.50006 | 27.22633 | 25084 ft | 435 kts | 9° |
| 2026-04-29 20:38 | 39.52925 | 27.23582 | 25085 ft | 437 kts | 12° |
| 2026-04-29 20:38 | 39.55851 | 27.24691 | 25085 ft | 438 kts | 13° |
| 2026-04-29 20:38 | 39.58758 | 27.25870 | 25087 ft | 438 kts | 14° |
| 2026-04-29 20:38 | 39.61668 | 27.27081 | 25090 ft | 438 kts | 14° |
| 2026-04-29 20:39 | 39.64558 | 27.28291 | 25087 ft | 438 kts | 14° |
| 2026-04-29 20:39 | 39.67450 | 27.29500 | 25087 ft | 438 kts | 14° |
| 2026-04-29 20:39 | 39.70348 | 27.30705 | 25085 ft | 438 kts | 14° |
| 2026-04-29 20:39 | 39.73262 | 27.31913 | 25084 ft | 439 kts | 14° |
| 2026-04-29 20:40 | 39.76145 | 27.33105 | 25086 ft | 439 kts | 14° |
| 2026-04-29 20:40 | 39.79062 | 27.34310 | 25088 ft | 438 kts | 14° |
| 2026-04-29 20:40 | 39.81954 | 27.35504 | 25091 ft | 438 kts | 14° |
| 2026-04-29 20:40 | 39.84861 | 27.36703 | 25089 ft | 438 kts | 13° |
| 2026-04-29 20:41 | 39.87756 | 27.37897 | 25095 ft | 438 kts | 14° |
| 2026-04-29 20:41 | 39.90656 | 27.39094 | 25096 ft | 437 kts | 13° |
| 2026-04-29 20:41 | 39.93589 | 27.40304 | 25098 ft | 438 kts | 13° |
| 2026-04-29 20:41 | 39.96489 | 27.41499 | 25098 ft | 438 kts | 13° |
| 2026-04-29 20:42 | 39.99377 | 27.42689 | 25096 ft | 438 kts | 13° |
| 2026-04-29 20:42 | 40.02275 | 27.43884 | 25098 ft | 438 kts | 13° |
| 2026-04-29 20:42 | 40.05165 | 27.45076 | 25099 ft | 439 kts | 13° |
| 2026-04-29 20:42 | 40.08065 | 27.46273 | 25100 ft | 438 kts | 13° |
| 2026-04-29 20:43 | 40.10974 | 27.47475 | 25099 ft | 438 kts | 13° |
| 2026-04-29 20:43 | 40.13898 | 27.48732 | 25099 ft | 438 kts | 16° |
| 2026-04-29 20:43 | 40.16624 | 27.50321 | 25095 ft | 427 kts | 25° |
| 2026-04-29 20:43 | 40.19032 | 27.52534 | 25099 ft | 416 kts | 37° |
| 2026-04-29 20:44 | 40.21008 | 27.55263 | 25101 ft | 418 kts | 47° |
| 2026-04-29 20:44 | 40.22712 | 27.58393 | 25099 ft | 424 kts | 54° |
| 2026-04-29 20:44 | 40.24199 | 27.61731 | 25049 ft | 433 kts | 58° |
| 2026-04-29 20:44 | 40.25615 | 27.65249 | 24739 ft | 445 kts | 60° |
| 2026-04-29 20:45 | 40.27014 | 27.68893 | 24415 ft | 446 kts | 61° |
| 2026-04-29 20:45 | 40.28363 | 27.72473 | 23960 ft | 440 kts | 62° |
| 2026-04-29 20:45 | 40.29715 | 27.76076 | 23390 ft | 436 kts | 62° |
| 2026-04-29 20:45 | 40.31043 | 27.79610 | 22803 ft | 433 kts | 62° |
| 2026-04-29 20:46 | 40.32364 | 27.83109 | 22215 ft | 430 kts | 61° |
| 2026-04-29 20:46 | 40.33680 | 27.86579 | 21621 ft | 427 kts | 61° |
| 2026-04-29 20:46 | 40.34988 | 27.90017 | 21036 ft | 424 kts | 61° |
| 2026-04-29 20:46 | 40.36302 | 27.93459 | 20443 ft | 421 kts | 61° |
| 2026-04-29 20:47 | 40.37613 | 27.96891 | 19850 ft | 418 kts | 61° |
| 2026-04-29 20:47 | 40.38903 | 28.00263 | 19255 ft | 415 kts | 61° |
| 2026-04-29 20:47 | 40.40172 | 28.03582 | 18675 ft | 412 kts | 61° |
| 2026-04-29 20:47 | 40.41455 | 28.06940 | 18075 ft | 408 kts | 61° |
| 2026-04-29 20:48 | 40.42711 | 28.10231 | 17516 ft | 405 kts | 61° |
| 2026-04-29 20:48 | 40.43972 | 28.13535 | 16911 ft | 402 kts | 62° |
| 2026-04-29 20:48 | 40.45203 | 28.16766 | 16321 ft | 398 kts | 62° |
| 2026-04-29 20:48 | 40.46437 | 28.20007 | 15756 ft | 394 kts | 62° |
| 2026-04-29 20:49 | 40.47639 | 28.23164 | 15214 ft | 391 kts | 62° |
| 2026-04-29 20:49 | 40.48844 | 28.26333 | 14606 ft | 388 kts | 62° |
| 2026-04-29 20:49 | 40.50035 | 28.29471 | 14058 ft | 384 kts | 62° |
| 2026-04-29 20:49 | 40.51231 | 28.32623 | 13492 ft | 381 kts | 62° |
| 2026-04-29 20:50 | 40.52399 | 28.35706 | 12936 ft | 377 kts | 62° |
| 2026-04-29 20:50 | 40.53557 | 28.38766 | 12376 ft | 374 kts | 62° |
| 2026-04-29 20:50 | 40.54703 | 28.41792 | 11810 ft | 371 kts | 62° |
| 2026-04-29 20:50 | 40.55838 | 28.44795 | 11247 ft | 367 kts | 62° |
| 2026-04-29 20:51 | 40.56962 | 28.47774 | 10736 ft | 363 kts | 61° |
| 2026-04-29 20:51 | 40.58064 | 28.50701 | 10441 ft | 351 kts | 62° |
| 2026-04-29 20:51 | 40.59124 | 28.53525 | 10317 ft | 335 kts | 61° |
| 2026-04-29 20:51 | 40.60133 | 28.56215 | 10205 ft | 322 kts | 61° |
| 2026-04-29 20:52 | 40.61108 | 28.58811 | 9763 ft | 320 kts | 61° |
| 2026-04-29 20:52 | 40.62093 | 28.61430 | 9291 ft | 314 kts | 61° |
| 2026-04-29 20:52 | 40.63037 | 28.63944 | 8906 ft | 304 kts | 61° |
| 2026-04-29 20:52 | 40.63964 | 28.66415 | 8544 ft | 295 kts | 62° |
| 2026-04-29 20:53 | 40.64859 | 28.68805 | 8183 ft | 287 kts | 62° |
| 2026-04-29 20:53 | 40.65718 | 28.71100 | 7840 ft | 279 kts | 62° |
| 2026-04-29 20:53 | 40.66565 | 28.73363 | 7495 ft | 272 kts | 62° |
| 2026-04-29 20:53 | 40.67390 | 28.75573 | 7174 ft | 265 kts | 63° |
| 2026-04-29 20:54 | 40.68975 | 28.79818 | 6530 ft | 253 kts | 63° |
| 2026-04-29 20:54 | 40.69752 | 28.81897 | 6225 ft | 258 kts | 63° |
| 2026-04-29 20:54 | 40.70545 | 28.84024 | 5908 ft | 255 kts | 63° |
| 2026-04-29 20:55 | 40.71317 | 28.86099 | 5591 ft | 249 kts | 63° |
| 2026-04-29 20:55 | 40.72075 | 28.88135 | 5294 ft | 253 kts | 63° |
| 2026-04-29 20:55 | 40.72850 | 28.90219 | 4966 ft | 255 kts | 63° |
| 2026-04-29 20:55 | 40.73631 | 28.92319 | 4645 ft | 254 kts | 64° |
| 2026-04-29 20:56 | 40.74401 | 28.94393 | 4345 ft | 252 kts | 64° |
| 2026-04-29 20:56 | 40.75162 | 28.96447 | 4212 ft | 243 kts | 64° |
| 2026-04-29 20:56 | 40.75880 | 28.98383 | 4148 ft | 232 kts | 64° |
| 2026-04-29 20:56 | 40.76578 | 29.00267 | 4077 ft | 222 kts | 63° |
| 2026-04-29 20:57 | 40.77299 | 29.02004 | 3961 ft | 215 kts | 56° |
| 2026-04-29 20:57 | 40.78190 | 29.03579 | 3695 ft | 215 kts | 51° |
| 2026-04-29 20:57 | 40.79144 | 29.05113 | 3448 ft | 214 kts | 51° |
| 2026-04-29 20:57 | 40.80068 | 29.06623 | 3215 ft | 213 kts | 52° |
| 2026-04-29 20:58 | 40.81009 | 29.08115 | 3047 ft | 208 kts | 51° |
| 2026-04-29 20:58 | 40.81837 | 29.09650 | 2999 ft | 204 kts | 59° |
| 2026-04-29 20:58 | 40.82524 | 29.11294 | 2979 ft | 204 kts | 63° |
| 2026-04-29 20:58 | 40.83170 | 29.12971 | 2978 ft | 200 kts | 64° |
| 2026-04-29 20:59 | 40.83760 | 29.14536 | 2990 ft | 184 kts | 64° |
| 2026-04-29 20:59 | 40.84306 | 29.15995 | 2923 ft | 174 kts | 64° |
| 2026-04-29 20:59 | 40.84846 | 29.17441 | 2661 ft | 174 kts | 64° |
| 2026-04-29 20:59 | 40.85363 | 29.18828 | 2398 ft | 164 kts | 64° |
| 2026-04-29 21:00 | 40.85849 | 29.20137 | 2129 ft | 154 kts | 64° |
| 2026-04-29 21:00 | 40.86314 | 29.21390 | 1890 ft | 150 kts | 64° |
| 2026-04-29 21:00 | 40.86756 | 29.22578 | 1661 ft | 139 kts | 64° |
| 2026-04-29 21:00 | 40.87170 | 29.23693 | 1439 ft | 131 kts | 64° |
| 2026-04-29 21:01 | 40.87575 | 29.24785 | 1235 ft | 132 kts | 63° |
| 2026-04-29 21:01 | 40.87980 | 29.25881 | 1018 ft | 132 kts | 63° |
| 2026-04-29 21:01 | 40.88398 | 29.26965 | 806 ft | 134 kts | 62° |
| 2026-04-29 21:01 | 40.88801 | 29.28069 | 592 ft | 135 kts | 62° |
| 2026-04-29 21:02 | 40.89207 | 29.29172 | 378 ft | 131 kts | 62° |
| 2026-04-29 21:02 | 40.89585 | 29.30192 | 322 ft | 111 kts | 62° |
| 2026-04-29 21:02 | 40.89836 | 29.30866 | 321 ft | 55 kts | 64° |
| 2026-04-29 21:02 | 40.89971 | 29.31180 | 320 ft | 27 kts | 48° |
| 2026-04-29 21:03 | 40.90065 | 29.31290 | 320 ft | 12 kts | 34° |
| 2026-04-29 21:03 | 40.90130 | 29.31347 | 320 ft | 10 kts | 33° |
| 2026-04-29 21:03 | 40.90189 | 29.31397 | 320 ft | 10 kts | 33° |
| 2026-04-29 21:03 | 40.90245 | 29.31454 | 320 ft | 10 kts | 42° |
| 2026-04-29 21:04 | 40.90290 | 29.31534 | 320 ft | 12 kts | 63° |
| 2026-04-29 21:04 | 40.90329 | 29.31635 | 320 ft | 12 kts | 63° |
| 2026-04-29 21:04 | 40.90367 | 29.31735 | 320 ft | 13 kts | 63° |
| 2026-04-29 21:04 | 40.90411 | 29.31854 | 320 ft | 14 kts | 64° |
| 2026-04-29 21:05 | 40.90452 | 29.31965 | 320 ft | 9 kts | 55° |
| 2026-04-29 21:05 | 40.90509 | 29.31984 | 320 ft | 8 kts | 336° |
| 2026-04-29 21:05 | 40.90562 | 29.31952 | 320 ft | 7 kts | 333° |
| 2026-04-29 21:05 | 40.90615 | 29.31930 | 320 ft | 9 kts | 11° |
| 2026-04-29 21:06 | 40.90657 | 29.32005 | 320 ft | 5 kts | 64° |
| 2026-04-29 21:06 | 40.90684 | 29.32034 | 320 ft | 5 kts | 353° |
| 2026-04-29 21:06 | 40.90720 | 29.32012 | 320 ft | 5 kts | 334° |
| 2026-04-29 21:06 | 40.90732 | 29.32004 | 320 ft | 0 kts | 334° |